createdAt,value
2018-09-22T00:01:50.015Z,16.46
2018-09-22T00:04:18.958Z,16.45
2018-09-22T00:06:47.784Z,16.42
2018-09-22T00:09:16.639Z,16.46
2018-09-22T00:11:45.548Z,16.42
2018-09-22T00:14:14.289Z,16.37
2018-09-22T00:16:43.127Z,16.33
2018-09-22T00:19:13.727Z,16.35
2018-09-22T00:21:42.712Z,16.40
2018-09-22T00:24:11.766Z,16.47
2018-09-22T00:26:40.572Z,16.46
2018-09-22T00:29:09.416Z,16.47
2018-09-22T00:31:38.187Z,16.50
2018-09-22T00:34:07.056Z,16.50
2018-09-22T00:36:35.924Z,16.50
2018-09-22T00:39:06.573Z,16.51
2018-09-22T00:41:35.445Z,16.51
2018-09-22T00:44:04.441Z,16.50
2018-09-22T00:46:33.411Z,16.48
2018-09-22T00:49:02.179Z,16.40
2018-09-22T00:51:31.496Z,16.44
2018-09-22T00:54:00.425Z,16.47
2018-09-22T00:56:29.232Z,16.46
2018-09-22T00:58:58.137Z,16.46
2018-09-22T01:01:27.039Z,16.50
2018-09-22T01:03:55.914Z,16.50
2018-09-22T01:06:24.870Z,16.47
2018-09-22T01:08:53.707Z,16.43
2018-09-22T01:11:22.658Z,16.43
2018-09-22T01:13:51.519Z,16.40
2018-09-22T01:16:20.279Z,16.38
2018-09-22T01:18:49.133Z,16.36
2018-09-22T01:21:18.041Z,16.38
2018-09-22T01:23:46.844Z,16.39
2018-09-22T01:26:15.762Z,16.37
2018-09-22T01:28:44.560Z,16.35
2018-09-22T01:31:13.429Z,16.35
2018-09-22T01:33:42.257Z,16.37
2018-09-22T01:36:11.061Z,16.39
2018-09-22T01:38:39.851Z,16.43
2018-09-22T01:41:08.870Z,16.43
2018-09-22T01:43:37.748Z,16.45
2018-09-22T01:46:06.576Z,16.43
2018-09-22T01:48:35.510Z,16.39
2018-09-22T01:51:04.357Z,16.40
2018-09-22T01:53:33.254Z,16.39
2018-09-22T01:56:02.080Z,16.34
2018-09-22T01:58:30.961Z,16.34
2018-09-22T02:00:59.835Z,16.36
2018-09-22T02:03:28.658Z,16.34
2018-09-22T02:05:57.462Z,16.29
2018-09-22T02:08:26.336Z,16.23
2018-09-22T02:10:55.188Z,16.24
2018-09-22T02:13:24.134Z,16.28
2018-09-22T02:15:53.074Z,16.27
2018-09-22T02:18:21.950Z,16.19
2018-09-22T02:20:50.818Z,16.11
2018-09-22T02:23:19.708Z,16.08
2018-09-22T02:25:48.728Z,16.08
2018-09-22T02:28:17.516Z,16.08
2018-09-22T02:30:46.391Z,16.03
2018-09-22T02:33:15.350Z,16.03
2018-09-22T02:35:44.536Z,16.00
2018-09-22T02:38:13.456Z,15.98
2018-09-22T02:40:42.360Z,16.02
2018-09-22T02:43:11.217Z,15.96
2018-09-22T02:45:40.112Z,15.96
2018-09-22T02:48:09.046Z,15.94
2018-09-22T02:50:37.910Z,15.91
2018-09-22T02:53:06.769Z,15.83
2018-09-22T02:55:35.713Z,15.76
2018-09-22T02:58:04.704Z,15.70
2018-09-22T03:00:33.621Z,15.63
2018-09-22T03:03:02.520Z,15.57
2018-09-22T03:05:31.397Z,15.47
2018-09-22T03:08:00.313Z,15.40
2018-09-22T03:10:29.172Z,15.33
2018-09-22T03:12:58.064Z,15.30
2018-09-22T03:15:26.961Z,15.22
2018-09-22T03:17:55.964Z,15.21
2018-09-22T03:20:24.801Z,15.20
2018-09-22T03:22:53.677Z,15.17
2018-09-22T03:25:22.612Z,15.17
2018-09-22T03:27:51.450Z,15.14
2018-09-22T03:30:20.528Z,15.09
2018-09-22T03:32:49.339Z,15.09
2018-09-22T03:35:18.260Z,15.08
2018-09-22T03:37:47.063Z,15.02
2018-09-22T03:40:15.907Z,15.03
2018-09-22T03:42:44.950Z,15.01
2018-09-22T03:45:14.104Z,15.05
2018-09-22T03:47:42.882Z,15.03
2018-09-22T03:50:11.690Z,15.03
2018-09-22T03:52:40.536Z,14.99
2018-09-22T03:55:09.337Z,14.88
2018-09-22T03:57:38.204Z,14.83
2018-09-22T04:00:08.089Z,14.81
2018-09-22T04:02:36.900Z,14.84
2018-09-22T04:05:05.864Z,14.89
2018-09-22T04:07:34.747Z,14.92
2018-09-22T04:10:03.594Z,14.94
2018-09-22T04:12:32.565Z,14.97
2018-09-22T04:15:01.375Z,14.99
2018-09-22T04:17:30.261Z,15.04
2018-09-22T04:19:59.192Z,15.08
2018-09-22T04:22:27.985Z,15.10
2018-09-22T04:24:56.803Z,15.18
2018-09-22T04:27:25.662Z,15.25
2018-09-22T04:29:54.704Z,15.30
2018-09-22T04:32:23.654Z,15.38
2018-09-22T04:34:52.449Z,15.43
2018-09-22T04:37:21.265Z,15.49
2018-09-22T04:39:50.083Z,15.51
2018-09-22T04:42:19.029Z,15.56
2018-09-22T04:44:47.942Z,15.63
2018-09-22T04:47:16.772Z,15.69
2018-09-22T04:49:45.659Z,15.76
2018-09-22T04:52:14.530Z,15.77
2018-09-22T04:54:43.331Z,15.76
2018-09-22T04:57:12.203Z,15.82
2018-09-22T04:59:41.035Z,15.87
2018-09-22T05:02:10.041Z,15.87
2018-09-22T05:04:39.156Z,15.88
2018-09-22T05:07:08.355Z,15.90
2018-09-22T05:09:37.211Z,15.92
2018-09-22T05:12:06.465Z,15.87
2018-09-22T05:14:35.327Z,15.89
2018-09-22T05:17:04.357Z,15.99
2018-09-22T05:19:33.412Z,16.11
2018-09-22T05:22:02.255Z,16.24
2018-09-22T05:24:31.067Z,16.38
2018-09-22T05:26:59.863Z,16.48
2018-09-22T05:29:28.684Z,16.51
2018-09-22T05:31:57.492Z,16.62
2018-09-22T05:34:26.503Z,16.64
2018-09-22T05:36:55.486Z,16.69
2018-09-22T05:39:24.368Z,16.80
2018-09-22T05:41:53.257Z,16.86
2018-09-22T05:44:22.176Z,16.93
2018-09-22T05:46:51.032Z,16.97
2018-09-22T05:49:19.865Z,17.05
2018-09-22T05:51:48.688Z,17.06
2018-09-22T05:54:17.775Z,17.15
2018-09-22T05:56:46.663Z,17.21
2018-09-22T05:59:16.324Z,17.22
2018-09-22T06:01:45.138Z,17.22
2018-09-22T06:04:13.989Z,17.26
2018-09-22T06:06:42.897Z,17.32
2018-09-22T06:09:11.691Z,17.31
2018-09-22T06:11:40.571Z,17.32
2018-09-22T06:14:09.527Z,17.32
2018-09-22T06:16:38.333Z,17.35
2018-09-22T06:19:07.241Z,17.44
2018-09-22T06:21:37.003Z,17.53
2018-09-22T06:24:05.851Z,17.54
2018-09-22T06:26:34.688Z,17.60
2018-09-22T06:29:03.529Z,17.47
2018-09-22T06:31:32.432Z,17.34
2018-09-22T06:34:01.327Z,17.34
2018-09-22T06:36:30.213Z,17.42
2018-09-22T06:38:59.057Z,17.52
2018-09-22T06:41:28.554Z,17.67
2018-09-22T06:43:57.460Z,17.77
2018-09-22T06:46:26.265Z,17.89
2018-09-22T06:48:55.160Z,18.07
2018-09-22T06:51:23.996Z,18.16
2018-09-22T06:53:52.795Z,18.25
2018-09-22T06:56:21.756Z,18.32
2018-09-22T06:58:50.713Z,18.36
2018-09-22T07:01:19.504Z,18.41
2018-09-22T07:03:48.334Z,18.42
2018-09-22T07:06:17.347Z,18.38
2018-09-22T07:08:46.189Z,18.46
2018-09-22T07:11:15.016Z,18.59
2018-09-22T07:13:44.005Z,18.67
2018-09-22T07:16:13.004Z,18.77
2018-09-22T07:18:41.867Z,18.88
2018-09-22T07:21:10.737Z,18.90
2018-09-22T07:23:39.576Z,18.98
2018-09-22T07:26:08.488Z,19.07
2018-09-22T07:28:37.523Z,19.19
2018-09-22T07:31:06.645Z,19.24
2018-09-22T07:33:35.491Z,19.33
2018-09-22T07:36:04.391Z,19.42
2018-09-22T07:38:33.287Z,19.43
2018-09-22T07:41:02.117Z,19.48
2018-09-22T07:43:30.987Z,19.61
2018-09-22T07:45:59.862Z,19.63
2018-09-22T07:48:28.689Z,19.62
2018-09-22T07:50:57.616Z,19.67
2018-09-22T07:53:27.015Z,19.73
2018-09-22T07:55:55.880Z,19.79
2018-09-22T07:58:24.877Z,19.88
2018-09-22T08:00:53.697Z,19.98
2018-09-22T08:03:22.664Z,20.08
2018-09-22T08:05:51.508Z,20.13
2018-09-22T08:08:20.360Z,20.17
2018-09-22T08:10:49.295Z,20.25
2018-09-22T08:13:18.143Z,20.34
2018-09-22T08:15:47.064Z,20.40
2018-09-22T08:18:15.988Z,20.47
2018-09-22T08:20:44.958Z,20.55
2018-09-22T08:23:13.806Z,20.61
2018-09-22T08:25:42.671Z,20.71
2018-09-22T08:28:11.509Z,20.79
2018-09-22T08:30:40.383Z,20.83
2018-09-22T08:33:09.275Z,20.87
2018-09-22T08:35:38.228Z,20.91
2018-09-22T08:38:07.048Z,20.99
2018-09-22T08:40:35.967Z,21.09
2018-09-22T08:43:04.764Z,21.18
2018-09-22T08:45:33.595Z,21.26
2018-09-22T08:48:02.495Z,21.40
2018-09-22T08:50:32.104Z,21.52
2018-09-22T08:53:00.939Z,21.61
2018-09-22T08:55:29.885Z,21.67
2018-09-22T08:57:58.893Z,21.69
2018-09-22T09:00:27.943Z,21.73
2018-09-22T09:02:56.956Z,21.79
2018-09-22T09:05:25.893Z,21.84
2018-09-22T09:07:54.696Z,21.91
2018-09-22T09:10:23.546Z,22.00
2018-09-22T09:12:52.475Z,22.04
2018-09-22T09:15:21.356Z,22.10
2018-09-22T09:17:50.243Z,22.20
2018-09-22T09:20:19.238Z,22.29
2018-09-22T09:22:48.142Z,22.33
2018-09-22T09:25:17.017Z,22.44
2018-09-22T09:27:45.942Z,22.52
2018-09-22T09:30:14.994Z,22.59
2018-09-22T09:32:43.867Z,22.63
2018-09-22T09:35:12.841Z,22.63
2018-09-22T09:37:41.768Z,22.68
2018-09-22T09:40:11.018Z,22.74
2018-09-22T09:42:39.876Z,22.83
2018-09-22T09:45:08.751Z,22.89
2018-09-22T09:47:37.593Z,22.96
2018-09-22T09:50:06.580Z,23.04
2018-09-22T09:52:35.423Z,23.16
2018-09-22T09:55:04.263Z,23.28
2018-09-22T09:57:33.104Z,23.34
2018-09-22T10:00:02.073Z,23.47
2018-09-22T10:02:30.944Z,23.57
2018-09-22T10:04:59.756Z,23.62
2018-09-22T10:07:28.723Z,23.69
2018-09-22T10:09:57.683Z,23.81
2018-09-22T10:12:26.502Z,23.83
2018-09-22T10:14:55.460Z,23.89
2018-09-22T10:17:24.415Z,24.00
2018-09-22T10:19:53.209Z,24.07
2018-09-22T10:22:22.018Z,24.13
2018-09-22T10:24:50.928Z,24.16
2018-09-22T10:27:19.824Z,24.19
2018-09-22T10:29:48.748Z,24.31
2018-09-22T10:32:17.660Z,24.37
2018-09-22T10:34:46.498Z,24.41
2018-09-22T10:37:15.336Z,24.47
2018-09-22T10:39:44.271Z,24.56
2018-09-22T10:42:13.208Z,24.63
2018-09-22T10:44:42.084Z,24.72
2018-09-22T10:47:11.031Z,24.79
2018-09-22T10:49:39.839Z,24.82
2018-09-22T10:52:08.668Z,24.87
2018-09-22T10:54:37.524Z,24.89
2018-09-22T10:57:07.155Z,24.95
2018-09-22T10:59:36.024Z,25.03
2018-09-22T11:02:04.977Z,25.08
2018-09-22T11:04:33.835Z,25.18
2018-09-22T11:07:02.931Z,25.22
2018-09-22T11:09:31.841Z,25.23
2018-09-22T11:12:00.612Z,25.27
2018-09-22T11:14:29.879Z,25.33
2018-09-22T11:16:58.745Z,25.40
2018-09-22T11:19:27.580Z,25.41
2018-09-22T11:21:56.459Z,25.46
2018-09-22T11:24:25.567Z,25.51
2018-09-22T11:26:54.435Z,25.61
2018-09-22T11:29:23.664Z,25.72
2018-09-22T11:31:52.580Z,25.73
2018-09-22T11:34:21.466Z,25.77
2018-09-22T11:36:50.319Z,25.79
2018-09-22T11:39:19.238Z,25.87
2018-09-22T11:41:48.079Z,25.87
2018-09-22T11:44:17.034Z,25.90
2018-09-22T11:46:45.964Z,25.98
2018-09-22T11:49:14.828Z,26.06
2018-09-22T11:51:43.698Z,26.12
2018-09-22T11:54:12.613Z,26.12
2018-09-22T11:56:41.542Z,26.10
2018-09-22T11:59:10.466Z,26.13
2018-09-22T12:01:39.417Z,26.21
2018-09-22T12:04:08.544Z,26.29
2018-09-22T12:06:37.497Z,26.40
2018-09-22T12:09:10.105Z,26.41
2018-09-22T12:11:39.124Z,26.38
2018-09-22T12:14:08.157Z,26.37
2018-09-22T12:16:37.229Z,26.46
2018-09-22T12:19:06.315Z,26.54
2018-09-22T12:21:35.157Z,26.58
2018-09-22T12:24:04.287Z,26.62
2018-09-22T12:26:33.195Z,26.75
2018-09-22T12:29:02.111Z,26.76
2018-09-22T12:31:30.960Z,26.76
2018-09-22T12:33:59.804Z,26.75
2018-09-22T12:36:28.650Z,26.78
2018-09-22T12:38:57.480Z,26.79
2018-09-22T12:41:26.370Z,26.83
2018-09-22T12:43:55.247Z,26.87
2018-09-22T12:46:24.106Z,27.04
2018-09-22T12:48:52.996Z,27.18
2018-09-22T12:51:21.918Z,27.10
2018-09-22T12:53:50.985Z,27.03
2018-09-22T12:56:20.017Z,27.05
2018-09-22T12:58:48.912Z,27.08
2018-09-22T13:01:17.796Z,27.10
2018-09-22T13:03:46.725Z,27.11
2018-09-22T13:06:16.848Z,27.15
2018-09-22T13:08:45.752Z,27.25
2018-09-22T13:11:14.721Z,27.26
2018-09-22T13:13:43.617Z,27.29
2018-09-22T13:16:12.503Z,27.38
2018-09-22T13:18:41.381Z,27.46
2018-09-22T13:21:10.206Z,27.54
2018-09-22T13:23:40.244Z,27.61
2018-09-22T13:26:09.276Z,27.67
2018-09-22T13:28:38.235Z,27.66
2018-09-22T13:31:07.335Z,27.68
2018-09-22T13:33:36.423Z,27.67
2018-09-22T13:36:05.734Z,27.66
2018-09-22T13:38:34.743Z,27.69
2018-09-22T13:41:03.831Z,27.70
2018-09-22T13:43:32.699Z,27.72
2018-09-22T13:46:01.713Z,27.68
2018-09-22T13:48:30.693Z,27.63
2018-09-22T13:50:59.675Z,27.63
2018-09-22T13:53:28.685Z,27.61
2018-09-22T13:55:57.479Z,27.63
2018-09-22T13:58:26.361Z,27.62
2018-09-22T14:00:55.254Z,27.61
2018-09-22T14:03:24.104Z,27.63
2018-09-22T14:05:53.042Z,27.63
2018-09-22T14:08:21.928Z,27.59
2018-09-22T14:10:50.854Z,27.61
2018-09-22T14:13:19.845Z,27.67
2018-09-22T14:15:48.862Z,27.71
2018-09-22T14:18:17.673Z,27.72
2018-09-22T14:20:46.590Z,27.68
2018-09-22T14:23:15.401Z,27.64
2018-09-22T14:25:44.316Z,27.66
2018-09-22T14:28:13.126Z,27.68
2018-09-22T14:30:41.951Z,27.64
2018-09-22T14:33:10.761Z,27.60
2018-09-22T14:35:39.653Z,27.49
2018-09-22T14:38:08.567Z,27.41
2018-09-22T14:40:37.542Z,27.41
2018-09-22T14:43:06.833Z,27.41
2018-09-22T14:45:35.792Z,27.41
2018-09-22T14:48:04.719Z,27.38
2018-09-22T14:50:33.575Z,27.35
2018-09-22T14:53:02.398Z,27.32
2018-09-22T14:55:31.315Z,27.28
2018-09-22T14:58:00.212Z,27.22
2018-09-22T15:00:29.085Z,27.13
2018-09-22T15:02:57.925Z,27.09
2018-09-22T15:05:26.781Z,27.07
2018-09-22T15:07:57.021Z,27.04
2018-09-22T15:10:26.501Z,27.04
2018-09-22T15:12:55.406Z,26.99
2018-09-22T15:15:24.381Z,27.01
2018-09-22T15:17:54.635Z,27.05
2018-09-22T15:20:23.477Z,27.10
2018-09-22T15:22:52.404Z,27.20
2018-09-22T15:25:21.367Z,27.32
2018-09-22T15:27:50.235Z,27.32
2018-09-22T15:30:19.151Z,27.16
2018-09-22T15:32:48.129Z,27.00
2018-09-22T15:35:16.962Z,26.80
2018-09-22T15:37:45.805Z,26.75
2018-09-22T15:40:14.614Z,26.65
2018-09-22T15:43:09.242Z,26.56
2018-09-22T15:45:38.153Z,26.47
2018-09-22T15:48:13.199Z,26.35
2018-09-22T15:50:42.404Z,26.29
2018-09-22T15:53:11.286Z,26.14
2018-09-22T15:55:40.156Z,26.09
2018-09-22T15:58:09.055Z,26.03
2018-09-22T16:00:38.054Z,25.97
2018-09-22T16:03:06.961Z,25.89
2018-09-22T16:05:35.850Z,25.79
2018-09-22T16:08:05.151Z,25.69
2018-09-22T16:10:34.030Z,25.59
2018-09-22T16:13:02.926Z,25.51
2018-09-22T16:15:31.913Z,25.41
2018-09-22T16:18:00.729Z,25.35
2018-09-22T16:20:29.652Z,25.30
2018-09-22T16:22:58.531Z,25.21
2018-09-22T16:25:27.393Z,25.14
2018-09-22T16:27:56.240Z,25.07
2018-09-22T16:30:25.136Z,25.01
2018-09-22T16:32:53.971Z,25.00
2018-09-22T16:35:22.858Z,24.93
2018-09-22T16:37:51.874Z,24.87
2018-09-22T16:40:20.881Z,24.78
2018-09-22T16:42:49.754Z,24.76
2018-09-22T16:45:18.737Z,24.72
2018-09-22T16:47:47.683Z,24.63
2018-09-22T16:50:16.518Z,24.44
2018-09-22T16:52:45.363Z,24.30
2018-09-22T16:55:14.302Z,24.13
2018-09-22T16:57:43.177Z,24.09
2018-09-22T17:00:12.105Z,24.00
2018-09-22T17:02:40.983Z,23.95
2018-09-22T17:05:10.812Z,23.92
2018-09-22T17:07:39.713Z,23.87
2018-09-22T17:10:08.543Z,23.82
2018-09-22T17:12:38.589Z,23.75
2018-09-22T17:15:07.678Z,23.68
2018-09-22T17:17:36.557Z,23.64
2018-09-22T17:20:05.508Z,23.67
2018-09-22T17:22:34.395Z,23.66
2018-09-22T17:25:03.378Z,23.56
2018-09-22T17:27:32.305Z,23.57
2018-09-22T17:30:01.260Z,23.51
2018-09-22T17:32:30.152Z,23.39
2018-09-22T17:34:59.123Z,23.33
2018-09-22T17:37:28.257Z,23.25
2018-09-22T17:39:57.090Z,23.19
2018-09-22T17:42:26.017Z,23.18
2018-09-22T17:44:54.894Z,23.15
2018-09-22T17:47:23.749Z,23.08
2018-09-22T17:49:52.785Z,22.97
2018-09-22T17:52:21.654Z,22.78
2018-09-22T17:54:57.209Z,22.70
2018-09-22T17:57:26.152Z,22.71
2018-09-22T17:59:55.085Z,22.69
2018-09-22T18:02:24.147Z,22.67
2018-09-22T18:04:52.977Z,22.63
2018-09-22T18:07:21.806Z,22.55
2018-09-22T18:09:50.612Z,22.47
2018-09-22T18:12:19.525Z,22.37
2018-09-22T18:14:48.375Z,22.24
2018-09-22T18:17:17.319Z,22.12
2018-09-22T18:19:46.333Z,22.06
2018-09-22T18:22:15.197Z,21.99
2018-09-22T18:24:44.006Z,21.89
2018-09-22T18:27:13.327Z,21.79
2018-09-22T18:29:42.201Z,21.76
2018-09-22T18:32:11.007Z,21.69
2018-09-22T18:34:39.798Z,21.64
2018-09-22T18:37:08.694Z,21.57
2018-09-22T18:39:37.881Z,21.56
2018-09-22T18:42:06.779Z,21.55
2018-09-22T18:44:35.603Z,21.49
2018-09-22T18:47:04.498Z,21.43
2018-09-22T18:49:33.407Z,21.38
2018-09-22T18:52:02.293Z,21.32
2018-09-22T18:54:31.111Z,21.31
2018-09-22T18:57:00.124Z,21.28
2018-09-22T18:59:29.114Z,21.29
2018-09-22T19:01:58.210Z,21.26
2018-09-22T19:04:27.392Z,21.21
2018-09-22T19:06:56.239Z,21.18
2018-09-22T19:09:25.128Z,21.13
2018-09-22T19:11:54.035Z,21.03
2018-09-22T19:14:27.681Z,20.96
2018-09-22T19:17:02.197Z,20.89
2018-09-22T19:19:35.812Z,20.87
2018-09-22T19:22:06.699Z,20.92
2018-09-22T19:24:50.594Z,20.92
2018-09-22T19:27:32.806Z,20.88
2018-09-22T19:30:08.275Z,20.89
2018-09-22T19:32:40.197Z,20.90
2018-09-22T19:35:13.549Z,20.89
2018-09-22T19:38:06.223Z,20.86
2018-09-22T19:40:41.229Z,20.77
2018-09-22T19:43:14.124Z,20.70
2018-09-22T19:45:48.312Z,20.62
2018-09-22T19:49:20.202Z,20.63
2018-09-22T19:51:52.605Z,20.70
2018-09-22T19:54:21.454Z,20.72
2018-09-22T19:56:50.388Z,20.74
2018-09-22T19:59:19.303Z,20.76
2018-09-22T20:01:48.208Z,20.75
2018-09-22T20:04:17.232Z,20.76
2018-09-22T20:06:46.205Z,20.76
2018-09-22T20:09:15.171Z,20.80
2018-09-22T20:11:44.172Z,20.85
2018-09-22T20:14:13.272Z,20.93
2018-09-22T20:16:42.187Z,20.99
2018-09-22T20:19:11.177Z,21.02
2018-09-22T20:21:40.033Z,21.02
2018-09-22T20:24:08.936Z,21.01
2018-09-22T20:26:37.950Z,21.01
2018-09-22T20:29:06.880Z,21.03
2018-09-22T20:31:35.821Z,21.02
2018-09-22T20:34:04.784Z,20.95
2018-09-22T20:36:33.676Z,20.83
2018-09-22T20:39:03.015Z,20.71
2018-09-22T20:41:31.889Z,20.66
2018-09-22T20:44:00.708Z,20.60
2018-09-22T20:46:29.570Z,20.54
2018-09-22T20:48:58.520Z,20.45
2018-09-22T20:51:27.409Z,20.38
2018-09-22T20:53:56.361Z,20.30
2018-09-22T20:56:25.408Z,20.26
2018-09-22T20:58:54.335Z,20.25
2018-09-22T21:01:23.219Z,20.25
2018-09-22T21:03:52.084Z,20.24
2018-09-22T21:06:21.427Z,20.27
2018-09-22T21:08:50.624Z,20.28
2018-09-22T21:11:19.477Z,20.31
2018-09-22T21:13:48.286Z,20.37
2018-09-22T21:16:17.299Z,20.43
2018-09-22T21:18:46.337Z,20.39
2018-09-22T21:21:15.379Z,20.37
2018-09-22T21:23:44.409Z,20.35
2018-09-22T21:26:13.285Z,20.31
2018-09-22T21:28:42.103Z,20.31
2018-09-22T21:31:11.069Z,20.25
2018-09-22T21:33:39.929Z,20.15
2018-09-22T21:36:08.763Z,20.13
2018-09-22T21:38:37.764Z,20.15
2018-09-22T21:41:06.651Z,20.14
2018-09-22T21:43:35.447Z,20.10
2018-09-22T21:46:04.338Z,20.04
2018-09-22T21:48:33.272Z,19.97
2018-09-22T21:51:02.284Z,19.97
2018-09-22T21:53:31.062Z,19.97
2018-09-22T21:55:59.959Z,19.93
2018-09-22T21:58:28.971Z,19.91
2018-09-22T22:00:57.836Z,19.92
2018-09-22T22:03:26.747Z,19.85
2018-09-22T22:05:55.658Z,19.79
2018-09-22T22:08:24.871Z,19.74
2018-09-22T22:10:53.905Z,19.70
2018-09-22T22:13:23.792Z,19.67
2018-09-22T22:15:52.611Z,19.63
2018-09-22T22:18:21.453Z,19.63
2018-09-22T22:20:50.328Z,19.63
2018-09-22T22:23:19.288Z,19.67
2018-09-22T22:25:48.301Z,19.73
2018-09-22T22:28:17.213Z,19.79
2018-09-22T22:30:46.100Z,19.79
2018-09-22T22:33:14.910Z,19.72
2018-09-22T22:35:43.728Z,19.58
2018-09-22T22:38:12.649Z,19.50
2018-09-22T22:40:41.498Z,19.46
2018-09-22T22:43:10.349Z,19.43
2018-09-22T22:45:39.227Z,19.36
2018-09-22T22:48:08.192Z,19.28
2018-09-22T22:50:37.083Z,19.22
2018-09-22T22:53:05.961Z,19.13
2018-09-22T22:55:34.792Z,19.11
2018-09-22T22:58:03.665Z,18.98
2018-09-22T23:00:32.652Z,18.87
2018-09-22T23:03:01.581Z,18.85
2018-09-22T23:05:30.426Z,18.84
2018-09-22T23:07:59.260Z,18.87
2018-09-22T23:10:28.104Z,18.98
2018-09-22T23:12:56.936Z,18.95
2018-09-22T23:15:25.784Z,18.91
2018-09-22T23:17:54.702Z,19.11
2018-09-22T23:20:23.551Z,19.08
2018-09-22T23:22:52.529Z,19.17
2018-09-22T23:25:21.387Z,19.25
2018-09-22T23:27:50.243Z,19.29
2018-09-22T23:30:19.218Z,19.28
2018-09-22T23:32:48.114Z,19.36
2018-09-22T23:35:16.988Z,19.34
2018-09-22T23:37:45.788Z,19.36
2018-09-22T23:40:14.727Z,19.40
2018-09-22T23:42:43.592Z,19.42
2018-09-22T23:45:12.589Z,19.45
2018-09-22T23:47:41.444Z,19.41
2018-09-22T23:50:10.361Z,19.37
2018-09-22T23:52:39.212Z,19.34
2018-09-22T23:55:08.366Z,19.30
2018-09-22T23:57:37.256Z,19.28
